Main page
METAR-TAF:

METAR-TAF

Airports :

Council Bluffs Municipal Airport

Council Bluffs, Iowa, United States

latitude: 41-16N, longitude: 095-46W, elevation: 1253 ft

Current weather observation

The report was made 20 minutes ago, at 04:15 UTC
Wind 13 mph from the North/Northwest
Temperature 66°F
Humidity 100%
Pressure 29.94 in. Hg
Visibility: 8 miles
Overcast at a height of 600 ft

METAR: KCBF 190415Z AUTO 34011KT 8SM OVC006 19/19 A2994 RMK AO2

Time: 23:35 (04:35 UTC)


TAF: missing

Weather observations and forecasts of more than 4000 airports (METAR and TAF reports).

The available stations are represented by yellow and red dots on the map.

Hover mouse over dot to see the name of the station.

Then click to see weather observations and forecasts.

To change the map : click on the green buttons with a black cross to zoom in, on the green button with a dash to zoom out, or on the green arrows for adjacent maps.


METAR-TAF: